VTUU/UBP METAR and TAF weather

Enter ICAO airport designator
Station Type Date Time Source
VTUU METAR 2018/12/10 09:00 UTC NOAA

VTUU 100900Z 01006KT 9000 SCT028 BKN080 31/21 Q1010 NOSIG


Station Type Date Time Source
VTUU Decoded METAR 2018/12/10 09:00 UTC NOAA

Ubon Ratchathani, Thailand (VTUU) 15-15N 104-52E 127M
Dec 10, 2018 - 04:00 AM EST / 2018.12.10 0900 UTC
Wind: from the N (010 degrees) at 7 MPH (6 KT):0
Visibility: 5 mile(s):0
Sky conditions: mostly cloudy
Temperature: 87 F (31 C)
Dew Point: 69 F (21 C)
Relative Humidity: 55%
Pressure (altimeter): 29.83 in. Hg (1010 hPa)
ob: VTUU 100900Z 01006KT 9000 SCT028 BKN080 31/21 Q1010 NOSIG
cycle: 9

Station Type Date Time Source
VTUU TAF 2018/12/10 06:38 UTC NOAA

TAF VTUU 100500Z 1006/1106 04006KT 9000 FEW030


Example: see airport list